sensor_id;sensor_type;location;lat;lon;timestamp;P1;P2;P0
69349;PMS5003;64554;43.452;4.934;2023-03-05T00:00:06;52.00;42.80;26.00
69349;PMS5003;64554;43.452;4.934;2023-03-05T00:02:33;54.25;43.25;26.00
69349;PMS5003;64554;43.452;4.934;2023-03-05T00:04:59;48.75;40.00;26.00
69349;PMS5003;64554;43.452;4.934;2023-03-05T00:07:26;51.75;42.75;26.25
69349;PMS5003;64554;43.452;4.934;2023-03-05T00:09:52;53.40;43.00;24.60
69349;PMS5003;64554;43.452;4.934;2023-03-05T00:12:18;55.75;43.25;27.00
69349;PMS5003;64554;43.452;4.934;2023-03-05T00:14:45;48.25;40.00;24.00
69349;PMS5003;64554;43.452;4.934;2023-03-05T00:17:12;52.00;44.00;24.00
69349;PMS5003;64554;43.452;4.934;2023-03-05T00:19:38;53.20;44.00;24.00
69349;PMS5003;64554;43.452;4.934;2023-03-05T00:22:04;53.25;44.00;25.75
69349;PMS5003;64554;43.452;4.934;2023-03-05T00:24:31;54.75;45.50;25.75
69349;PMS5003;64554;43.452;4.934;2023-03-05T00:26:57;48.50;39.75;25.75
69349;PMS5003;64554;43.452;4.934;2023-03-05T00:29:24;46.60;38.00;24.80
69349;PMS5003;64554;43.452;4.934;2023-03-05T00:31:50;51.25;43.25;26.25
69349;PMS5003;64554;43.452;4.934;2023-03-05T00:34:17;49.00;41.00;26.00
69349;PMS5003;64554;43.452;4.934;2023-03-05T00:36:48;48.75;39.50;24.00
69349;PMS5003;64554;43.452;4.934;2023-03-05T00:39:15;59.50;46.50;27.75
69349;PMS5003;64554;43.452;4.934;2023-03-05T00:41:42;53.50;44.00;26.00
69349;PMS5003;64554;43.452;4.934;2023-03-05T00:44:09;55.50;44.50;25.50
69349;PMS5003;64554;43.452;4.934;2023-03-05T00:46:36;53.00;44.20;26.00
69349;PMS5003;64554;43.452;4.934;2023-03-05T00:49:02;52.40;43.00;26.00
69349;PMS5003;64554;43.452;4.934;2023-03-05T00:51:29;52.80;44.00;25.00
69349;PMS5003;64554;43.452;4.934;2023-03-05T00:53:55;48.80;39.80;26.00
69349;PMS5003;64554;43.452;4.934;2023-03-05T00:56:22;51.40;44.00;26.20
69349;PMS5003;64554;43.452;4.934;2023-03-05T00:58:49;53.20;45.00;26.00
69349;PMS5003;64554;43.452;4.934;2023-03-05T01:01:19;51.00;41.00;25.00
69349;PMS5003;64554;43.452;4.934;2023-03-05T01:03:46;52.33;42.67;24.00
69349;PMS5003;64554;43.452;4.934;2023-03-05T01:06:12;48.00;41.60;24.00
69349;PMS5003;64554;43.452;4.934;2023-03-05T01:08:42;49.00;38.50;24.00
69349;PMS5003;64554;43.452;4.934;2023-03-05T01:11:08;51.00;43.50;24.50
69349;PMS5003;64554;43.452;4.934;2023-03-05T01:13:35;50.33;40.33;26.00
69349;PMS5003;64554;43.452;4.934;2023-03-05T01:16:02;54.67;44.00;24.00
69349;PMS5003;64554;43.452;4.934;2023-03-05T01:18:28;54.00;43.25;25.75
69349;PMS5003;64554;43.452;4.934;2023-03-05T01:20:55;50.75;43.00;25.00
69349;PMS5003;64554;43.452;4.934;2023-03-05T01:23:21;52.00;42.00;25.00
69349;PMS5003;64554;43.452;4.934;2023-03-05T01:25:52;50.00;42.00;26.00
69349;PMS5003;64554;43.452;4.934;2023-03-05T01:28:18;52.40;43.20;26.40
69349;PMS5003;64554;43.452;4.934;2023-03-05T01:30:45;57.00;45.40;25.60
69349;PMS5003;64554;43.452;4.934;2023-03-05T01:33:11;52.00;42.75;25.00
69349;PMS5003;64554;43.452;4.934;2023-03-05T01:35:38;51.25;42.75;24.00
69349;PMS5003;64554;43.452;4.934;2023-03-05T01:38:04;52.60;42.20;24.00
69349;PMS5003;64554;43.452;4.934;2023-03-05T01:40:31;51.00;41.40;24.40
69349;PMS5003;64554;43.452;4.934;2023-03-05T01:42:59;53.00;43.50;25.50
69349;PMS5003;64554;43.452;4.934;2023-03-05T01:45:26;51.50;42.75;25.25
69349;PMS5003;64554;43.452;4.934;2023-03-05T01:47:55;51.50;42.00;24.50
69349;PMS5003;64554;43.452;4.934;2023-03-05T01:50:22;48.25;39.75;23.00
69349;PMS5003;64554;43.452;4.934;2023-03-05T01:52:56;51.50;41.00;23.00
69349;PMS5003;64554;43.452;4.934;2023-03-05T01:55:25;49.00;40.00;24.00
69349;PMS5003;64554;43.452;4.934;2023-03-05T01:57:54;49.20;41.40;24.00
69349;PMS5003;64554;43.452;4.934;2023-03-05T02:00:23;48.50;38.50;24.00
69349;PMS5003;64554;43.452;4.934;2023-03-05T02:02:51;54.50;44.00;24.50
69349;PMS5003;64554;43.452;4.934;2023-03-05T02:07:56;50.50;40.50;24.00
69349;PMS5003;64554;43.452;4.934;2023-03-05T02:10:27;52.75;42.50;26.25
69349;PMS5003;64554;43.452;4.934;2023-03-05T02:12:55;51.60;40.20;24.00
69349;PMS5003;64554;43.452;4.934;2023-03-05T02:15:23;51.50;43.00;24.00
69349;PMS5003;64554;43.452;4.934;2023-03-05T02:17:49;54.25;42.25;24.00
69349;PMS5003;64554;43.452;4.934;2023-03-05T02:20:20;54.50;43.50;24.75
69349;PMS5003;64554;43.452;4.934;2023-03-05T02:22:47;54.50;43.25;25.50
69349;PMS5003;64554;43.452;4.934;2023-03-05T02:25:16;50.50;41.75;23.75
69349;PMS5003;64554;43.452;4.934;2023-03-05T02:27:44;51.25;41.50;27.00
69349;PMS5003;64554;43.452;4.934;2023-03-05T02:30:12;55.25;45.25;26.00
69349;PMS5003;64554;43.452;4.934;2023-03-05T02:32:38;54.40;44.00;26.00
69349;PMS5003;64554;43.452;4.934;2023-03-05T02:35:05;60.25;45.75;26.75
69349;PMS5003;64554;43.452;4.934;2023-03-05T02:37:31;54.00;43.00;24.00
69349;PMS5003;64554;43.452;4.934;2023-03-05T02:39:59;54.40;43.60;25.80
69349;PMS5003;64554;43.452;4.934;2023-03-05T02:42:26;58.20;48.00;27.00
69349;PMS5003;64554;43.452;4.934;2023-03-05T02:44:53;52.25;43.00;25.75
69349;PMS5003;64554;43.452;4.934;2023-03-05T02:47:19;54.00;46.25;26.00
69349;PMS5003;64554;43.452;4.934;2023-03-05T02:49:46;55.25;44.25;27.00
69349;PMS5003;64554;43.452;4.934;2023-03-05T02:52:12;55.00;44.80;27.00
69349;PMS5003;64554;43.452;4.934;2023-03-05T02:54:38;55.60;43.60;27.00
69349;PMS5003;64554;43.452;4.934;2023-03-05T02:57:05;54.00;42.60;25.00
69349;PMS5003;64554;43.452;4.934;2023-03-05T02:59:31;54.40;42.80;24.20
69349;PMS5003;64554;43.452;4.934;2023-03-05T03:01:58;55.20;43.20;24.40
69349;PMS5003;64554;43.452;4.934;2023-03-05T03:04:24;55.75;46.50;26.00
69349;PMS5003;64554;43.452;4.934;2023-03-05T03:06:51;54.20;44.60;26.00
69349;PMS5003;64554;43.452;4.934;2023-03-05T03:09:18;51.60;41.60;24.60
69349;PMS5003;64554;43.452;4.934;2023-03-05T03:11:44;55.00;42.40;26.20
69349;PMS5003;64554;43.452;4.934;2023-03-05T03:14:11;55.00;45.00;27.00
69349;PMS5003;64554;43.452;4.934;2023-03-05T03:16:37;51.50;43.25;25.25
69349;PMS5003;64554;43.452;4.934;2023-03-05T03:19:04;51.25;44.25;26.25
69349;PMS5003;64554;43.452;4.934;2023-03-05T03:21:31;56.00;44.00;24.25
69349;PMS5003;64554;43.452;4.934;2023-03-05T03:23:57;57.25;46.25;27.00
69349;PMS5003;64554;43.452;4.934;2023-03-05T03:26:24;53.00;44.25;25.00
69349;PMS5003;64554;43.452;4.934;2023-03-05T03:28:50;54.75;44.50;25.00
69349;PMS5003;64554;43.452;4.934;2023-03-05T03:31:17;58.00;46.00;26.00
69349;PMS5003;64554;43.452;4.934;2023-03-05T03:33:43;59.75;47.50;25.50
69349;PMS5003;64554;43.452;4.934;2023-03-05T03:36:10;50.20;42.20;26.00
69349;PMS5003;64554;43.452;4.934;2023-03-05T03:38:37;51.00;42.60;25.00
69349;PMS5003;64554;43.452;4.934;2023-03-05T03:41:07;52.75;43.75;26.00
69349;PMS5003;64554;43.452;4.934;2023-03-05T03:43:34;58.75;46.00;27.25
69349;PMS5003;64554;43.452;4.934;2023-03-05T03:46:03;52.50;41.50;25.00
69349;PMS5003;64554;43.452;4.934;2023-03-05T03:48:29;56.00;44.75;25.75
69349;PMS5003;64554;43.452;4.934;2023-03-05T03:50:56;56.75;46.75;25.00
69349;PMS5003;64554;43.452;4.934;2023-03-05T03:53:22;56.50;46.00;25.00
69349;PMS5003;64554;43.452;4.934;2023-03-05T03:55:49;58.20;47.20;27.00
69349;PMS5003;64554;43.452;4.934;2023-03-05T03:58:15;53.00;44.00;25.25
69349;PMS5003;64554;43.452;4.934;2023-03-05T04:00:42;59.20;44.80;24.80
69349;PMS5003;64554;43.452;4.934;2023-03-05T04:03:08;57.00;46.00;26.50
69349;PMS5003;64554;43.452;4.934;2023-03-05T04:05:35;57.25;46.50;25.00
69349;PMS5003;64554;43.452;4.934;2023-03-05T04:08:01;56.40;44.60;25.00
69349;PMS5003;64554;43.452;4.934;2023-03-05T04:10:28;56.67;46.00;25.00
69349;PMS5003;64554;43.452;4.934;2023-03-05T04:12:55;60.50;46.00;26.00
69349;PMS5003;64554;43.452;4.934;2023-03-05T04:15:21;61.00;48.00;27.00
69349;PMS5003;64554;43.452;4.934;2023-03-05T04:17:48;58.20;45.80;26.40
69349;PMS5003;64554;43.452;4.934;2023-03-05T04:20:14;56.33;46.00;27.00
69349;PMS5003;64554;43.452;4.934;2023-03-05T04:22:41;60.75;46.00;27.00
69349;PMS5003;64554;43.452;4.934;2023-03-05T04:25:07;55.00;44.20;27.00
69349;PMS5003;64554;43.452;4.934;2023-03-05T04:27:34;64.80;50.20;27.20
69349;PMS5003;64554;43.452;4.934;2023-03-05T04:30:02;60.50;48.25;26.00
69349;PMS5003;64554;43.452;4.934;2023-03-05T04:32:29;60.50;47.50;26.00
69349;PMS5003;64554;43.452;4.934;2023-03-05T04:34:56;61.00;49.60;27.40
69349;PMS5003;64554;43.452;4.934;2023-03-05T04:37:23;58.75;47.00;25.25
69349;PMS5003;64554;43.452;4.934;2023-03-05T04:39:50;60.00;48.00;27.00
69349;PMS5003;64554;43.452;4.934;2023-03-05T04:42:16;57.50;45.75;26.50
69349;PMS5003;64554;43.452;4.934;2023-03-05T04:44:47;59.25;47.75;26.00
69349;PMS5003;64554;43.452;4.934;2023-03-05T04:47:14;61.50;47.00;28.00
69349;PMS5003;64554;43.452;4.934;2023-03-05T04:49:40;59.00;46.75;27.75
69349;PMS5003;64554;43.452;4.934;2023-03-05T04:52:07;56.75;46.75;25.50
69349;PMS5003;64554;43.452;4.934;2023-03-05T04:54:33;63.25;51.00;27.50
69349;PMS5003;64554;43.452;4.934;2023-03-05T04:57:00;62.00;50.67;29.67
69349;PMS5003;64554;43.452;4.934;2023-03-05T04:59:26;60.00;47.80;28.60
69349;PMS5003;64554;43.452;4.934;2023-03-05T05:01:52;62.20;48.00;26.40
69349;PMS5003;64554;43.452;4.934;2023-03-05T05:04:19;55.60;47.60;25.60
69349;PMS5003;64554;43.452;4.934;2023-03-05T05:06:45;63.75;49.50;28.00
69349;PMS5003;64554;43.452;4.934;2023-03-05T05:09:12;64.75;48.25;26.50
69349;PMS5003;64554;43.452;4.934;2023-03-05T05:11:38;58.75;48.50;27.00
69349;PMS5003;64554;43.452;4.934;2023-03-05T05:14:05;56.00;47.00;27.00
69349;PMS5003;64554;43.452;4.934;2023-03-05T05:16:32;60.75;47.25;27.00
69349;PMS5003;64554;43.452;4.934;2023-03-05T05:18:58;53.25;46.25;27.25
69349;PMS5003;64554;43.452;4.934;2023-03-05T05:21:25;56.00;47.00;27.50
69349;PMS5003;64554;43.452;4.934;2023-03-05T05:23:51;59.00;49.00;26.50
69349;PMS5003;64554;43.452;4.934;2023-03-05T05:26:17;66.50;51.75;30.00
69349;PMS5003;64554;43.452;4.934;2023-03-05T05:28:44;61.60;47.60;27.40
69349;PMS5003;64554;43.452;4.934;2023-03-05T05:31:12;63.00;49.00;27.50
69349;PMS5003;64554;43.452;4.934;2023-03-05T05:33:38;63.60;47.00;27.00
69349;PMS5003;64554;43.452;4.934;2023-03-05T05:36:06;60.40;48.00;29.00
69349;PMS5003;64554;43.452;4.934;2023-03-05T05:38:33;63.00;48.40;28.20
69349;PMS5003;64554;43.452;4.934;2023-03-05T05:41:04;60.60;48.80;28.40
69349;PMS5003;64554;43.452;4.934;2023-03-05T05:43:31;67.00;52.75;30.00
69349;PMS5003;64554;43.452;4.934;2023-03-05T05:45:58;64.50;50.75;30.00
69349;PMS5003;64554;43.452;4.934;2023-03-05T05:48:26;68.00;52.25;30.00
69349;PMS5003;64554;43.452;4.934;2023-03-05T05:50:53;66.00;52.60;30.00
69349;PMS5003;64554;43.452;4.934;2023-03-05T05:53:19;64.50;51.00;29.75
69349;PMS5003;64554;43.452;4.934;2023-03-05T05:55:46;62.40;51.20;30.00
69349;PMS5003;64554;43.452;4.934;2023-03-05T05:58:12;64.00;48.50;30.00
69349;PMS5003;64554;43.452;4.934;2023-03-05T06:00:39;64.75;50.50;29.00
69349;PMS5003;64554;43.452;4.934;2023-03-05T06:03:05;63.50;50.50;30.00
69349;PMS5003;64554;43.452;4.934;2023-03-05T06:05:33;66.00;51.25;30.00
69349;PMS5003;64554;43.452;4.934;2023-03-05T06:07:59;65.00;51.50;30.25
69349;PMS5003;64554;43.452;4.934;2023-03-05T06:10:26;69.80;55.20;30.60
69349;PMS5003;64554;43.452;4.934;2023-03-05T06:12:52;66.80;53.40;31.20
69349;PMS5003;64554;43.452;4.934;2023-03-05T06:15:19;62.33;50.00;30.00
69349;PMS5003;64554;43.452;4.934;2023-03-05T06:17:45;63.75;52.00;30.00
69349;PMS5003;64554;43.452;4.934;2023-03-05T06:20:13;63.75;50.25;28.00
69349;PMS5003;64554;43.452;4.934;2023-03-05T06:22:39;59.50;48.00;28.00
69349;PMS5003;64554;43.452;4.934;2023-03-05T06:25:06;67.50;52.50;29.50
69349;PMS5003;64554;43.452;4.934;2023-03-05T06:27:33;68.75;54.00;31.25
69349;PMS5003;64554;43.452;4.934;2023-03-05T06:30:00;65.00;50.80;30.00
69349;PMS5003;64554;43.452;4.934;2023-03-05T06:32:27;67.60;53.00;31.20
69349;PMS5003;64554;43.452;4.934;2023-03-05T06:34:53;68.50;54.00;31.25
69349;PMS5003;64554;43.452;4.934;2023-03-05T06:37:20;65.00;51.25;32.00
69349;PMS5003;64554;43.452;4.934;2023-03-05T06:39:46;73.20;58.60;35.00
69349;PMS5003;64554;43.452;4.934;2023-03-05T06:42:13;73.00;56.75;34.00
69349;PMS5003;64554;43.452;4.934;2023-03-05T06:44:39;73.80;58.60;34.00
69349;PMS5003;64554;43.452;4.934;2023-03-05T06:47:06;70.00;53.80;32.00
69349;PMS5003;64554;43.452;4.934;2023-03-05T06:49:33;69.50;55.25;32.00
69349;PMS5003;64554;43.452;4.934;2023-03-05T06:51:59;66.80;52.00;30.20
69349;PMS5003;64554;43.452;4.934;2023-03-05T06:54:27;66.00;51.75;30.00
69349;PMS5003;64554;43.452;4.934;2023-03-05T06:56:53;65.00;51.00;30.00
69349;PMS5003;64554;43.452;4.934;2023-03-05T06:59:19;73.00;58.50;35.00
69349;PMS5003;64554;43.452;4.934;2023-03-05T07:01:47;81.80;72.20;39.40
69349;PMS5003;64554;43.452;4.934;2023-03-05T07:04:13;68.60;55.40;32.40
69349;PMS5003;64554;43.452;4.934;2023-03-05T07:06:40;68.00;52.80;29.20
69349;PMS5003;64554;43.452;4.934;2023-03-05T07:09:09;70.00;58.80;33.40
69349;PMS5003;64554;43.452;4.934;2023-03-05T07:11:36;63.80;51.80;32.00
69349;PMS5003;64554;43.452;4.934;2023-03-05T07:14:02;69.00;54.20;33.00
69349;PMS5003;64554;43.452;4.934;2023-03-05T07:16:30;64.50;51.25;30.50
69349;PMS5003;64554;43.452;4.934;2023-03-05T07:18:58;65.25;50.75;31.50
69349;PMS5003;64554;43.452;4.934;2023-03-05T07:21:26;63.50;50.75;31.00
69349;PMS5003;64554;43.452;4.934;2023-03-05T07:23:53;65.50;50.25;30.25
69349;PMS5003;64554;43.452;4.934;2023-03-05T07:26:20;58.00;46.60;29.00
69349;PMS5003;64554;43.452;4.934;2023-03-05T07:28:46;57.50;47.50;29.00
69349;PMS5003;64554;43.452;4.934;2023-03-05T07:31:14;58.75;47.25;28.00
69349;PMS5003;64554;43.452;4.934;2023-03-05T07:33:40;58.75;47.50;29.75
69349;PMS5003;64554;43.452;4.934;2023-03-05T07:36:07;60.00;48.20;28.40
69349;PMS5003;64554;43.452;4.934;2023-03-05T07:38:34;62.20;51.40;29.20
69349;PMS5003;64554;43.452;4.934;2023-03-05T07:41:02;63.00;49.75;29.00
69349;PMS5003;64554;43.452;4.934;2023-03-05T07:43:28;64.25;51.75;30.75
69349;PMS5003;64554;43.452;4.934;2023-03-05T07:45:55;57.00;46.60;28.00
69349;PMS5003;64554;43.452;4.934;2023-03-05T07:48:22;64.25;49.50;29.00
69349;PMS5003;64554;43.452;4.934;2023-03-05T07:50:49;57.80;45.00;28.00
69349;PMS5003;64554;43.452;4.934;2023-03-05T07:53:16;56.20;44.60;26.20
69349;PMS5003;64554;43.452;4.934;2023-03-05T07:55:43;66.50;51.00;28.75
69349;PMS5003;64554;43.452;4.934;2023-03-05T07:58:10;57.60;46.60;27.40
69349;PMS5003;64554;43.452;4.934;2023-03-05T08:00:36;60.80;47.40;28.00
69349;PMS5003;64554;43.452;4.934;2023-03-05T08:03:03;60.00;48.00;28.00
69349;PMS5003;64554;43.452;4.934;2023-03-05T08:05:30;59.25;47.50;27.00
69349;PMS5003;64554;43.452;4.934;2023-03-05T08:07:56;59.50;45.25;26.50
69349;PMS5003;64554;43.452;4.934;2023-03-05T08:10:23;59.00;47.00;27.20
69349;PMS5003;64554;43.452;4.934;2023-03-05T08:12:49;60.25;47.00;28.50
69349;PMS5003;64554;43.452;4.934;2023-03-05T08:15:16;59.50;47.75;29.00
69349;PMS5003;64554;43.452;4.934;2023-03-05T08:17:42;62.75;49.00;29.00
69349;PMS5003;64554;43.452;4.934;2023-03-05T08:20:09;55.40;45.80;26.80
69349;PMS5003;64554;43.452;4.934;2023-03-05T08:22:36;58.00;47.60;27.60
69349;PMS5003;64554;43.452;4.934;2023-03-05T08:25:03;57.50;46.00;27.00
69349;PMS5003;64554;43.452;4.934;2023-03-05T08:27:30;53.60;43.60;26.60
69349;PMS5003;64554;43.452;4.934;2023-03-05T08:29:57;51.00;42.00;25.00
69349;PMS5003;64554;43.452;4.934;2023-03-05T08:32:23;59.00;47.75;26.50
69349;PMS5003;64554;43.452;4.934;2023-03-05T08:34:50;53.40;42.80;26.00
69349;PMS5003;64554;43.452;4.934;2023-03-05T08:37:17;57.25;45.50;26.50
69349;PMS5003;64554;43.452;4.934;2023-03-05T08:39:44;55.40;44.60;26.20
69349;PMS5003;64554;43.452;4.934;2023-03-05T08:42:10;53.20;44.00;26.00
69349;PMS5003;64554;43.452;4.934;2023-03-05T08:44:36;53.75;43.50;27.00
69349;PMS5003;64554;43.452;4.934;2023-03-05T08:47:03;58.80;45.00;25.40
69349;PMS5003;64554;43.452;4.934;2023-03-05T08:49:30;61.00;50.00;29.00
69349;PMS5003;64554;43.452;4.934;2023-03-05T08:51:56;61.00;48.00;28.00
69349;PMS5003;64554;43.452;4.934;2023-03-05T08:54:23;59.40;46.00;29.00
69349;PMS5003;64554;43.452;4.934;2023-03-05T08:56:49;58.00;46.25;26.50
69349;PMS5003;64554;43.452;4.934;2023-03-05T08:59:16;53.50;43.25;25.00
69349;PMS5003;64554;43.452;4.934;2023-03-05T09:01:42;54.75;44.75;27.25
69349;PMS5003;64554;43.452;4.934;2023-03-05T09:04:09;55.75;45.50;26.50
69349;PMS5003;64554;43.452;4.934;2023-03-05T09:06:36;57.75;46.00;27.75
69349;PMS5003;64554;43.452;4.934;2023-03-05T09:09:06;54.75;45.50;27.50
69349;PMS5003;64554;43.452;4.934;2023-03-05T09:11:33;57.50;46.75;27.00
69349;PMS5003;64554;43.452;4.934;2023-03-05T09:14:04;57.25;45.75;27.25
69349;PMS5003;64554;43.452;4.934;2023-03-05T09:16:31;52.25;43.25;26.00
69349;PMS5003;64554;43.452;4.934;2023-03-05T09:18:58;53.60;43.60;25.20
69349;PMS5003;64554;43.452;4.934;2023-03-05T09:21:25;52.75;42.75;25.75
69349;PMS5003;64554;43.452;4.934;2023-03-05T09:23:52;52.25;43.00;25.00
69349;PMS5003;64554;43.452;4.934;2023-03-05T09:26:18;50.60;41.00;26.00
69349;PMS5003;64554;43.452;4.934;2023-03-05T09:28:45;55.50;45.00;26.75
69349;PMS5003;64554;43.452;4.934;2023-03-05T09:31:12;55.33;44.00;25.00
69349;PMS5003;64554;43.452;4.934;2023-03-05T09:33:39;55.20;43.40;26.20
69349;PMS5003;64554;43.452;4.934;2023-03-05T09:36:14;60.20;46.40;27.00
69349;PMS5003;64554;43.452;4.934;2023-03-05T09:38:42;52.00;42.00;26.50
69349;PMS5003;64554;43.452;4.934;2023-03-05T09:48:47;55.00;43.25;27.00
69349;PMS5003;64554;43.452;4.934;2023-03-05T09:51:21;57.60;45.00;26.00
69349;PMS5003;64554;43.452;4.934;2023-03-05T09:54:00;55.25;44.00;26.25
69349;PMS5003;64554;43.452;4.934;2023-03-05T09:56:29;51.00;41.60;26.00
69349;PMS5003;64554;43.452;4.934;2023-03-05T09:58:58;53.40;44.00;27.00
69349;PMS5003;64554;43.452;4.934;2023-03-05T10:01:38;51.75;43.50;26.50
69349;PMS5003;64554;43.452;4.934;2023-03-05T10:04:13;49.50;41.00;25.00
69349;PMS5003;64554;43.452;4.934;2023-03-05T10:11:41;50.00;41.00;25.00
69349;PMS5003;64554;43.452;4.934;2023-03-05T10:14:12;55.40;43.40;26.00
69349;PMS5003;64554;43.452;4.934;2023-03-05T10:21:52;55.25;44.75;27.00
69349;PMS5003;64554;43.452;4.934;2023-03-05T10:27:08;51.80;42.00;25.80
69349;PMS5003;64554;43.452;4.934;2023-03-05T10:29:55;50.00;43.00;26.00
69349;PMS5003;64554;43.452;4.934;2023-03-05T10:32:35;52.50;43.50;25.75
69349;PMS5003;64554;43.452;4.934;2023-03-05T10:43:18;52.25;43.00;26.00
69349;PMS5003;64554;43.452;4.934;2023-03-05T10:45:49;50.40;42.40;24.40
69349;PMS5003;64554;43.452;4.934;2023-03-05T10:50:55;54.50;44.25;24.00
69349;PMS5003;64554;43.452;4.934;2023-03-05T10:53:33;49.00;39.25;23.75
69349;PMS5003;64554;43.452;4.934;2023-03-05T10:56:03;53.40;44.00;26.40
69349;PMS5003;64554;43.452;4.934;2023-03-05T10:58:32;52.25;42.25;25.50
69349;PMS5003;64554;43.452;4.934;2023-03-05T11:06:31;50.50;41.75;23.50
69349;PMS5003;64554;43.452;4.934;2023-03-05T11:11:36;52.80;41.00;23.20
69349;PMS5003;64554;43.452;4.934;2023-03-05T11:14:03;48.25;41.00;23.00
69349;PMS5003;64554;43.452;4.934;2023-03-05T11:16:31;51.80;43.20;25.00
69349;PMS5003;64554;43.452;4.934;2023-03-05T11:21:44;49.75;41.75;23.75
69349;PMS5003;64554;43.452;4.934;2023-03-05T11:24:12;50.80;39.00;23.00
69349;PMS5003;64554;43.452;4.934;2023-03-05T11:26:59;46.00;39.00;23.75
69349;PMS5003;64554;43.452;4.934;2023-03-05T11:29:30;46.40;39.20;23.60
69349;PMS5003;64554;43.452;4.934;2023-03-05T11:32:13;45.60;38.00;23.00
69349;PMS5003;64554;43.452;4.934;2023-03-05T11:34:40;46.25;37.75;21.50
69349;PMS5003;64554;43.452;4.934;2023-03-05T11:37:10;50.75;40.75;23.75
69349;PMS5003;64554;43.452;4.934;2023-03-05T11:39:45;44.40;36.00;22.60
69349;PMS5003;64554;43.452;4.934;2023-03-05T11:42:12;48.00;38.00;23.00
69349;PMS5003;64554;43.452;4.934;2023-03-05T11:44:50;49.00;39.25;25.00
69349;PMS5003;64554;43.452;4.934;2023-03-05T11:52:46;51.75;39.75;23.00
69349;PMS5003;64554;43.452;4.934;2023-03-05T11:57:44;51.00;39.75;22.50
69349;PMS5003;64554;43.452;4.934;2023-03-05T12:00:15;44.20;36.20;23.20
69349;PMS5003;64554;43.452;4.934;2023-03-05T12:02:42;47.75;39.25;22.25
69349;PMS5003;64554;43.452;4.934;2023-03-05T12:05:13;47.00;38.00;22.00
69349;PMS5003;64554;43.452;4.934;2023-03-05T12:07:40;49.00;40.60;24.00
69349;PMS5003;64554;43.452;4.934;2023-03-05T12:10:42;45.50;38.25;21.00
69349;PMS5003;64554;43.452;4.934;2023-03-05T12:13:12;49.00;40.25;22.00
69349;PMS5003;64554;43.452;4.934;2023-03-05T12:15:48;42.00;37.00;20.00
69349;PMS5003;64554;43.452;4.934;2023-03-05T12:23:49;45.00;38.60;21.00
69349;PMS5003;64554;43.452;4.934;2023-03-05T12:26:17;43.00;35.00;22.00
69349;PMS5003;64554;43.452;4.934;2023-03-05T12:33:56;45.50;38.00;20.50
69349;PMS5003;64554;43.452;4.934;2023-03-05T12:38:55;42.40;35.40;20.40
69349;PMS5003;64554;43.452;4.934;2023-03-05T12:46:42;36.00;32.75;22.00
69349;PMS5003;64554;43.452;4.934;2023-03-05T12:51:46;39.00;34.00;22.00
69349;PMS5003;64554;43.452;4.934;2023-03-05T12:54:30;40.40;35.40;20.00
69349;PMS5003;64554;43.452;4.934;2023-03-05T12:56:59;37.50;32.50;20.50
69349;PMS5003;64554;43.452;4.934;2023-03-05T12:59:38;44.40;35.00;20.00
69349;PMS5003;64554;43.452;4.934;2023-03-05T13:02:13;41.20;34.20;19.80
69349;PMS5003;64554;43.452;4.934;2023-03-05T13:04:43;40.40;34.00;20.00
69349;PMS5003;64554;43.452;4.934;2023-03-05T13:07:15;36.50;31.00;19.50
69349;PMS5003;64554;43.452;4.934;2023-03-05T13:09:55;41.00;35.00;20.00
69349;PMS5003;64554;43.452;4.934;2023-03-05T13:12:22;44.00;36.00;20.50
69349;PMS5003;64554;43.452;4.934;2023-03-05T13:15:00;43.20;34.40;20.80
69349;PMS5003;64554;43.452;4.934;2023-03-05T13:17:28;48.00;37.75;22.00
69349;PMS5003;64554;43.452;4.934;2023-03-05T13:19:56;44.75;37.00;19.75
69349;PMS5003;64554;43.452;4.934;2023-03-05T13:22:23;42.50;34.00;20.50
69349;PMS5003;64554;43.452;4.934;2023-03-05T13:27:49;36.60;30.00;18.00
69349;PMS5003;64554;43.452;4.934;2023-03-05T13:30:19;43.50;36.75;22.25
69349;PMS5003;64554;43.452;4.934;2023-03-05T13:32:48;38.60;32.60;19.60
69349;PMS5003;64554;43.452;4.934;2023-03-05T13:35:15;42.80;36.60;19.40
69349;PMS5003;64554;43.452;4.934;2023-03-05T13:37:42;40.25;34.25;19.00
69349;PMS5003;64554;43.452;4.934;2023-03-05T13:40:19;38.75;34.25;19.25
69349;PMS5003;64554;43.452;4.934;2023-03-05T13:42:46;42.00;33.50;19.75
69349;PMS5003;64554;43.452;4.934;2023-03-05T13:45:20;44.00;37.67;20.00
69349;PMS5003;64554;43.452;4.934;2023-03-05T13:47:57;39.00;34.00;20.00
69349;PMS5003;64554;43.452;4.934;2023-03-05T13:50:27;36.00;33.00;19.00
69349;PMS5003;64554;43.452;4.934;2023-03-05T13:52:54;31.60;30.60;19.00
69349;PMS5003;64554;43.452;4.934;2023-03-05T13:55:24;37.75;32.75;19.25
69349;PMS5003;64554;43.452;4.934;2023-03-05T13:57:51;36.00;32.40;18.60
69349;PMS5003;64554;43.452;4.934;2023-03-05T14:00:28;44.80;34.60;20.20
69349;PMS5003;64554;43.452;4.934;2023-03-05T14:02:56;42.00;33.50;20.25
69349;PMS5003;64554;43.452;4.934;2023-03-05T14:05:25;40.20;32.00;20.00
69349;PMS5003;64554;43.452;4.934;2023-03-05T14:07:51;37.50;31.25;18.75
69349;PMS5003;64554;43.452;4.934;2023-03-05T14:12:54;34.75;32.00;18.00
69349;PMS5003;64554;43.452;4.934;2023-03-05T14:15:22;35.40;30.20;17.00
69349;PMS5003;64554;43.452;4.934;2023-03-05T14:17:50;43.75;36.50;20.00
69349;PMS5003;64554;43.452;4.934;2023-03-05T14:20:18;40.75;35.00;22.25
69349;PMS5003;64554;43.452;4.934;2023-03-05T14:22:49;40.25;35.50;22.00
69349;PMS5003;64554;43.452;4.934;2023-03-05T14:25:26;40.00;32.00;19.50
69349;PMS5003;64554;43.452;4.934;2023-03-05T14:27:54;40.00;34.50;19.75
69349;PMS5003;64554;43.452;4.934;2023-03-05T14:30:22;45.20;34.20;21.20
69349;PMS5003;64554;43.452;4.934;2023-03-05T14:32:49;40.25;34.25;19.25
69349;PMS5003;64554;43.452;4.934;2023-03-05T14:35:17;41.00;35.00;20.00
69349;PMS5003;64554;43.452;4.934;2023-03-05T14:37:45;41.50;34.00;19.25
69349;PMS5003;64554;43.452;4.934;2023-03-05T14:45:18;42.80;35.80;20.40
69349;PMS5003;64554;43.452;4.934;2023-03-05T14:47:45;34.80;31.60;20.40
69349;PMS5003;64554;43.452;4.934;2023-03-05T14:50:15;40.00;32.20;22.00
69349;PMS5003;64554;43.452;4.934;2023-03-05T14:52:43;42.50;33.75;22.00
69349;PMS5003;64554;43.452;4.934;2023-03-05T14:55:14;48.20;37.00;22.40
69349;PMS5003;64554;43.452;4.934;2023-03-05T14:57:41;46.00;36.00;20.50
69349;PMS5003;64554;43.452;4.934;2023-03-05T15:00:18;36.60;32.00;20.40
69349;PMS5003;64554;43.452;4.934;2023-03-05T15:02:45;44.00;37.00;21.00
69349;PMS5003;64554;43.452;4.934;2023-03-05T15:05:11;41.00;35.00;21.00
69349;PMS5003;64554;43.452;4.934;2023-03-05T15:07:38;39.80;34.60;20.00
69349;PMS5003;64554;43.452;4.934;2023-03-05T15:10:05;39.50;35.00;23.00
69349;PMS5003;64554;43.452;4.934;2023-03-05T15:12:33;40.00;31.80;21.00
69349;PMS5003;64554;43.452;4.934;2023-03-05T15:14:59;47.40;38.40;22.80